sensor_id;sensor_type;location;lat;lon;timestamp;P1;durP1;ratioP1;P2;durP2;ratioP2
13487;SDS011;6816;48.506;9.050;2022-08-19T00:02:03;16.25;;;14.95;;
13487;SDS011;6816;48.506;9.050;2022-08-19T00:05:04;16.13;;;14.77;;
13487;SDS011;6816;48.506;9.050;2022-08-19T00:08:05;15.57;;;14.27;;
13487;SDS011;6816;48.506;9.050;2022-08-19T00:11:06;16.40;;;15.10;;
13487;SDS011;6816;48.506;9.050;2022-08-19T00:14:07;15.68;;;14.38;;
13487;SDS011;6816;48.506;9.050;2022-08-19T00:17:10;15.55;;;14.18;;
13487;SDS011;6816;48.506;9.050;2022-08-19T00:20:12;15.82;;;14.52;;
13487;SDS011;6816;48.506;9.050;2022-08-19T00:23:16;14.32;;;13.02;;
13487;SDS011;6816;48.506;9.050;2022-08-19T00:26:17;15.48;;;14.18;;
13487;SDS011;6816;48.506;9.050;2022-08-19T00:29:18;12.98;;;11.98;;
13487;SDS011;6816;48.506;9.050;2022-08-19T00:32:20;13.18;;;12.18;;
13487;SDS011;6816;48.506;9.050;2022-08-19T00:35:23;12.32;;;11.32;;
13487;SDS011;6816;48.506;9.050;2022-08-19T00:41:30;13.07;;;12.07;;
13487;SDS011;6816;48.506;9.050;2022-08-19T00:44:32;12.43;;;11.43;;
13487;SDS011;6816;48.506;9.050;2022-08-19T00:47:32;13.77;;;11.18;;
13487;SDS011;6816;48.506;9.050;2022-08-19T00:50:33;13.10;;;12.00;;
13487;SDS011;6816;48.506;9.050;2022-08-19T00:53:35;12.68;;;11.63;;
13487;SDS011;6816;48.506;9.050;2022-08-19T00:56:35;13.23;;;12.13;;
13487;SDS011;6816;48.506;9.050;2022-08-19T00:59:37;13.32;;;12.32;;
13487;SDS011;6816;48.506;9.050;2022-08-19T01:02:40;15.00;;;13.68;;
13487;SDS011;6816;48.506;9.050;2022-08-19T01:05:42;14.25;;;13.05;;
13487;SDS011;6816;48.506;9.050;2022-08-19T01:08:44;14.38;;;13.18;;
13487;SDS011;6816;48.506;9.050;2022-08-19T01:11:45;15.20;;;13.90;;
13487;SDS011;6816;48.506;9.050;2022-08-19T01:14:45;14.77;;;13.48;;
13487;SDS011;6816;48.506;9.050;2022-08-19T01:17:47;14.93;;;13.63;;
13487;SDS011;6816;48.506;9.050;2022-08-19T01:20:49;14.02;;;12.93;;
13487;SDS011;6816;48.506;9.050;2022-08-19T01:23:51;14.32;;;13.13;;
13487;SDS011;6816;48.506;9.050;2022-08-19T01:26:52;15.57;;;14.18;;
13487;SDS011;6816;48.506;9.050;2022-08-19T01:29:53;14.63;;;13.43;;
13487;SDS011;6816;48.506;9.050;2022-08-19T01:32:54;14.90;;;13.63;;
13487;SDS011;6816;48.506;9.050;2022-08-19T01:36:03;14.85;;;13.65;;
13487;SDS011;6816;48.506;9.050;2022-08-19T01:39:07;14.27;;;13.05;;
13487;SDS011;6816;48.506;9.050;2022-08-19T01:42:10;14.07;;;12.88;;
13487;SDS011;6816;48.506;9.050;2022-08-19T01:45:11;13.95;;;12.85;;
13487;SDS011;6816;48.506;9.050;2022-08-19T01:48:12;15.25;;;13.65;;
13487;SDS011;6816;48.506;9.050;2022-08-19T01:51:14;15.32;;;13.93;;
13487;SDS011;6816;48.506;9.050;2022-08-19T01:54:15;14.50;;;13.20;;
13487;SDS011;6816;48.506;9.050;2022-08-19T01:57:18;16.42;;;14.93;;
13487;SDS011;6816;48.506;9.050;2022-08-19T02:00:20;16.25;;;14.82;;
13487;SDS011;6816;48.506;9.050;2022-08-19T02:03:23;15.48;;;14.07;;
13487;SDS011;6816;48.506;9.050;2022-08-19T02:06:23;15.43;;;14.02;;
13487;SDS011;6816;48.506;9.050;2022-08-19T02:09:24;15.63;;;14.25;;
13487;SDS011;6816;48.506;9.050;2022-08-19T02:12:25;16.63;;;15.13;;
13487;SDS011;6816;48.506;9.050;2022-08-19T02:15:28;17.17;;;15.57;;
13487;SDS011;6816;48.506;9.050;2022-08-19T02:18:29;15.75;;;14.35;;
13487;SDS011;6816;48.506;9.050;2022-08-19T02:21:30;16.67;;;15.18;;
13487;SDS011;6816;48.506;9.050;2022-08-19T02:24:31;15.75;;;14.35;;
13487;SDS011;6816;48.506;9.050;2022-08-19T02:27:32;16.52;;;14.98;;
13487;SDS011;6816;48.506;9.050;2022-08-19T02:30:33;16.65;;;15.05;;
13487;SDS011;6816;48.506;9.050;2022-08-19T02:33:34;16.77;;;15.07;;
13487;SDS011;6816;48.506;9.050;2022-08-19T02:36:35;16.38;;;14.85;;
13487;SDS011;6816;48.506;9.050;2022-08-19T02:39:35;16.42;;;14.82;;
13487;SDS011;6816;48.506;9.050;2022-08-19T02:42:36;16.25;;;14.65;;
13487;SDS011;6816;48.506;9.050;2022-08-19T02:45:37;16.40;;;14.88;;
13487;SDS011;6816;48.506;9.050;2022-08-19T02:48:40;16.83;;;15.13;;
13487;SDS011;6816;48.506;9.050;2022-08-19T02:51:42;17.10;;;15.48;;
13487;SDS011;6816;48.506;9.050;2022-08-19T02:54:44;16.77;;;15.18;;
13487;SDS011;6816;48.506;9.050;2022-08-19T02:57:46;17.10;;;15.43;;
13487;SDS011;6816;48.506;9.050;2022-08-19T03:00:47;16.38;;;14.75;;
13487;SDS011;6816;48.506;9.050;2022-08-19T03:03:50;15.88;;;14.27;;
13487;SDS011;6816;48.506;9.050;2022-08-19T03:06:52;16.92;;;15.23;;
13487;SDS011;6816;48.506;9.050;2022-08-19T03:09:52;17.83;;;16.13;;
13487;SDS011;6816;48.506;9.050;2022-08-19T03:12:53;15.95;;;14.38;;
13487;SDS011;6816;48.506;9.050;2022-08-19T03:15:53;18.17;;;16.27;;
13487;SDS011;6816;48.506;9.050;2022-08-19T03:18:55;17.38;;;15.68;;
13487;SDS011;6816;48.506;9.050;2022-08-19T03:21:59;16.83;;;15.18;;
13487;SDS011;6816;48.506;9.050;2022-08-19T03:25:00;16.92;;;15.32;;
13487;SDS011;6816;48.506;9.050;2022-08-19T03:28:01;17.00;;;15.30;;
13487;SDS011;6816;48.506;9.050;2022-08-19T03:31:03;18.05;;;16.23;;
13487;SDS011;6816;48.506;9.050;2022-08-19T03:34:06;18.38;;;16.48;;
13487;SDS011;6816;48.506;9.050;2022-08-19T03:37:08;17.20;;;15.43;;
13487;SDS011;6816;48.506;9.050;2022-08-19T03:40:12;18.00;;;16.20;;
13487;SDS011;6816;48.506;9.050;2022-08-19T03:43:12;17.50;;;15.80;;
13487;SDS011;6816;48.506;9.050;2022-08-19T03:46:28;16.70;;;15.00;;
13487;SDS011;6816;48.506;9.050;2022-08-19T03:49:30;16.92;;;15.32;;
13487;SDS011;6816;48.506;9.050;2022-08-19T03:52:33;16.77;;;15.18;;
13487;SDS011;6816;48.506;9.050;2022-08-19T03:55:39;15.73;;;14.18;;
13487;SDS011;6816;48.506;9.050;2022-08-19T03:58:41;16.88;;;15.25;;
13487;SDS011;6816;48.506;9.050;2022-08-19T04:01:42;16.80;;;15.20;;
13487;SDS011;6816;48.506;9.050;2022-08-19T04:04:43;17.63;;;16.00;;
13487;SDS011;6816;48.506;9.050;2022-08-19T04:07:44;17.67;;;15.98;;
13487;SDS011;6816;48.506;9.050;2022-08-19T04:10:45;17.77;;;16.00;;
13487;SDS011;6816;48.506;9.050;2022-08-19T04:13:47;16.83;;;15.23;;
13487;SDS011;6816;48.506;9.050;2022-08-19T04:16:49;16.77;;;15.07;;
13487;SDS011;6816;48.506;9.050;2022-08-19T04:19:50;16.60;;;14.90;;
13487;SDS011;6816;48.506;9.050;2022-08-19T04:22:51;17.00;;;15.30;;
13487;SDS011;6816;48.506;9.050;2022-08-19T04:25:52;18.00;;;15.88;;
13487;SDS011;6816;48.506;9.050;2022-08-19T04:28:52;17.75;;;15.98;;
13487;SDS011;6816;48.506;9.050;2022-08-19T04:31:54;17.98;;;16.23;;
13487;SDS011;6816;48.506;9.050;2022-08-19T04:34:56;17.73;;;15.93;;
13487;SDS011;6816;48.506;9.050;2022-08-19T04:37:58;16.52;;;14.98;;
13487;SDS011;6816;48.506;9.050;2022-08-19T04:40:59;18.58;;;16.77;;
13487;SDS011;6816;48.506;9.050;2022-08-19T04:44:18;18.42;;;16.52;;
13487;SDS011;6816;48.506;9.050;2022-08-19T04:47:19;18.27;;;15.65;;
13487;SDS011;6816;48.506;9.050;2022-08-19T04:50:20;17.08;;;15.35;;
13487;SDS011;6816;48.506;9.050;2022-08-19T04:53:26;17.40;;;15.68;;
13487;SDS011;6816;48.506;9.050;2022-08-19T04:56:28;18.45;;;16.65;;
13487;SDS011;6816;48.506;9.050;2022-08-19T04:59:29;17.40;;;15.60;;
13487;SDS011;6816;48.506;9.050;2022-08-19T05:02:29;17.73;;;15.85;;
13487;SDS011;6816;48.506;9.050;2022-08-19T05:05:30;19.10;;;17.08;;
13487;SDS011;6816;48.506;9.050;2022-08-19T05:08:31;18.58;;;16.70;;
13487;SDS011;6816;48.506;9.050;2022-08-19T05:11:33;19.05;;;17.08;;
13487;SDS011;6816;48.506;9.050;2022-08-19T05:14:35;19.35;;;17.25;;
13487;SDS011;6816;48.506;9.050;2022-08-19T05:17:36;20.10;;;18.00;;
13487;SDS011;6816;48.506;9.050;2022-08-19T05:20:37;19.73;;;17.75;;
13487;SDS011;6816;48.506;9.050;2022-08-19T05:23:57;19.27;;;17.27;;
13487;SDS011;6816;48.506;9.050;2022-08-19T05:26:57;19.40;;;17.40;;
13487;SDS011;6816;48.506;9.050;2022-08-19T05:29:58;19.63;;;17.63;;
13487;SDS011;6816;48.506;9.050;2022-08-19T05:32:59;18.48;;;16.58;;
13487;SDS011;6816;48.506;9.050;2022-08-19T05:36:01;19.15;;;17.17;;
13487;SDS011;6816;48.506;9.050;2022-08-19T05:39:02;18.40;;;16.60;;
13487;SDS011;6816;48.506;9.050;2022-08-19T05:42:04;18.73;;;16.88;;
13487;SDS011;6816;48.506;9.050;2022-08-19T05:45:10;19.23;;;17.40;;
13487;SDS011;6816;48.506;9.050;2022-08-19T05:48:11;20.13;;;18.23;;
13487;SDS011;6816;48.506;9.050;2022-08-19T05:51:12;19.33;;;17.40;;
13487;SDS011;6816;48.506;9.050;2022-08-19T05:54:13;17.90;;;16.25;;
13487;SDS011;6816;48.506;9.050;2022-08-19T05:57:14;19.90;;;17.90;;
13487;SDS011;6816;48.506;9.050;2022-08-19T06:00:15;20.08;;;18.08;;
13487;SDS011;6816;48.506;9.050;2022-08-19T06:03:16;19.92;;;17.95;;
13487;SDS011;6816;48.506;9.050;2022-08-19T06:06:17;20.27;;;17.85;;
13487;SDS011;6816;48.506;9.050;2022-08-19T06:09:19;19.48;;;17.48;;
13487;SDS011;6816;48.506;9.050;2022-08-19T06:12:20;19.15;;;17.17;;
13487;SDS011;6816;48.506;9.050;2022-08-19T06:15:30;19.88;;;17.98;;
13487;SDS011;6816;48.506;9.050;2022-08-19T06:18:31;21.10;;;19.00;;
13487;SDS011;6816;48.506;9.050;2022-08-19T06:21:33;20.25;;;18.25;;
13487;SDS011;6816;48.506;9.050;2022-08-19T06:24:37;20.63;;;18.73;;
13487;SDS011;6816;48.506;9.050;2022-08-19T06:27:37;21.25;;;19.05;;
13487;SDS011;6816;48.506;9.050;2022-08-19T06:30:38;20.33;;;18.38;;
13487;SDS011;6816;48.506;9.050;2022-08-19T06:33:39;20.48;;;18.48;;
13487;SDS011;6816;48.506;9.050;2022-08-19T06:36:42;21.27;;;19.17;;
13487;SDS011;6816;48.506;9.050;2022-08-19T06:39:45;21.52;;;19.25;;
13487;SDS011;6816;48.506;9.050;2022-08-19T06:42:46;21.63;;;19.48;;
13487;SDS011;6816;48.506;9.050;2022-08-19T06:45:47;20.92;;;18.88;;
13487;SDS011;6816;48.506;9.050;2022-08-19T06:48:48;20.70;;;18.50;;
13487;SDS011;6816;48.506;9.050;2022-08-19T06:51:49;21.77;;;19.48;;
13487;SDS011;6816;48.506;9.050;2022-08-19T06:54:50;20.95;;;18.80;;
13487;SDS011;6816;48.506;9.050;2022-08-19T06:57:51;21.60;;;19.52;;
13487;SDS011;6816;48.506;9.050;2022-08-19T07:00:53;22.45;;;20.23;;
13487;SDS011;6816;48.506;9.050;2022-08-19T07:03:53;22.05;;;19.70;;
13487;SDS011;6816;48.506;9.050;2022-08-19T07:07:01;22.23;;;19.92;;
13487;SDS011;6816;48.506;9.050;2022-08-19T07:10:08;22.00;;;19.80;;
13487;SDS011;6816;48.506;9.050;2022-08-19T07:13:09;23.45;;;21.17;;
13487;SDS011;6816;48.506;9.050;2022-08-19T07:16:12;22.20;;;19.95;;
13487;SDS011;6816;48.506;9.050;2022-08-19T07:19:15;21.77;;;19.63;;
13487;SDS011;6816;48.506;9.050;2022-08-19T07:22:17;23.50;;;21.15;;
13487;SDS011;6816;48.506;9.050;2022-08-19T07:25:17;21.40;;;19.33;;
13487;SDS011;6816;48.506;9.050;2022-08-19T07:28:20;23.42;;;20.83;;
13487;SDS011;6816;48.506;9.050;2022-08-19T07:31:22;22.48;;;20.17;;
13487;SDS011;6816;48.506;9.050;2022-08-19T07:34:25;22.27;;;20.08;;
13487;SDS011;6816;48.506;9.050;2022-08-19T07:37:26;22.00;;;19.70;;
13487;SDS011;6816;48.506;9.050;2022-08-19T07:40:28;22.17;;;19.88;;
13487;SDS011;6816;48.506;9.050;2022-08-19T07:43:29;21.73;;;19.52;;
13487;SDS011;6816;48.506;9.050;2022-08-19T07:46:30;23.27;;;20.98;;
13487;SDS011;6816;48.506;9.050;2022-08-19T07:49:31;22.20;;;20.02;;
13487;SDS011;6816;48.506;9.050;2022-08-19T07:52:32;23.73;;;21.35;;
13487;SDS011;6816;48.506;9.050;2022-08-19T07:55:34;22.88;;;20.55;;
13487;SDS011;6816;48.506;9.050;2022-08-19T07:58:37;22.33;;;20.10;;
13487;SDS011;6816;48.506;9.050;2022-08-19T08:01:41;22.77;;;20.58;;
13487;SDS011;6816;48.506;9.050;2022-08-19T08:04:42;22.85;;;20.55;;
13487;SDS011;6816;48.506;9.050;2022-08-19T08:08:01;22.30;;;20.17;;
13487;SDS011;6816;48.506;9.050;2022-08-19T08:11:20;22.90;;;20.58;;
13487;SDS011;6816;48.506;9.050;2022-08-19T08:14:23;23.17;;;20.85;;
13487;SDS011;6816;48.506;9.050;2022-08-19T08:17:27;23.52;;;21.25;;
13487;SDS011;6816;48.506;9.050;2022-08-19T08:20:29;22.92;;;20.55;;
13487;SDS011;6816;48.506;9.050;2022-08-19T08:23:30;23.92;;;21.52;;
13487;SDS011;6816;48.506;9.050;2022-08-19T08:26:31;22.95;;;20.65;;
13487;SDS011;6816;48.506;9.050;2022-08-19T08:29:32;24.45;;;21.95;;
13487;SDS011;6816;48.506;9.050;2022-08-19T08:32:33;24.33;;;21.90;;
13487;SDS011;6816;48.506;9.050;2022-08-19T08:35:34;24.00;;;21.60;;
13487;SDS011;6816;48.506;9.050;2022-08-19T08:38:36;22.95;;;20.67;;
13487;SDS011;6816;48.506;9.050;2022-08-19T08:41:44;24.30;;;21.90;;
13487;SDS011;6816;48.506;9.050;2022-08-19T08:45:13;23.00;;;20.42;;
13487;SDS011;6816;48.506;9.050;2022-08-19T08:48:24;23.75;;;21.27;;
13487;SDS011;6816;48.506;9.050;2022-08-19T08:51:39;23.75;;;21.45;;
13487;SDS011;6816;48.506;9.050;2022-08-19T08:54:44;23.52;;;21.10;;
13487;SDS011;6816;48.506;9.050;2022-08-19T09:00:48;21.75;;;19.65;;
13487;SDS011;6816;48.506;9.050;2022-08-19T09:03:50;22.50;;;20.33;;
13487;SDS011;6816;48.506;9.050;2022-08-19T09:06:53;22.88;;;20.63;;
13487;SDS011;6816;48.506;9.050;2022-08-19T09:16:49;24.42;;;21.95;;
13487;SDS011;6816;48.506;9.050;2022-08-19T09:19:52;22.35;;;20.25;;
13487;SDS011;6816;48.506;9.050;2022-08-19T09:22:58;23.17;;;20.63;;
13487;SDS011;6816;48.506;9.050;2022-08-19T09:25:58;22.23;;;19.85;;
13487;SDS011;6816;48.506;9.050;2022-08-19T09:28:59;23.33;;;20.63;;
13487;SDS011;6816;48.506;9.050;2022-08-19T09:32:01;22.05;;;20.05;;
13487;SDS011;6816;48.506;9.050;2022-08-19T09:35:02;22.98;;;20.30;;
13487;SDS011;6816;48.506;9.050;2022-08-19T09:38:03;22.85;;;20.52;;
13487;SDS011;6816;48.506;9.050;2022-08-19T09:41:04;22.23;;;20.08;;
13487;SDS011;6816;48.506;9.050;2022-08-19T09:44:12;23.20;;;20.27;;
13487;SDS011;6816;48.506;9.050;2022-08-19T09:47:13;21.75;;;19.40;;
13487;SDS011;6816;48.506;9.050;2022-08-19T09:50:14;21.45;;;19.25;;
13487;SDS011;6816;48.506;9.050;2022-08-19T09:53:14;20.88;;;18.65;;
13487;SDS011;6816;48.506;9.050;2022-08-19T09:56:15;21.73;;;19.40;;
13487;SDS011;6816;48.506;9.050;2022-08-19T09:59:18;21.98;;;19.88;;
13487;SDS011;6816;48.506;9.050;2022-08-19T10:02:18;23.05;;;20.40;;
13487;SDS011;6816;48.506;9.050;2022-08-19T10:05:19;22.02;;;19.73;;
13487;SDS011;6816;48.506;9.050;2022-08-19T10:08:38;21.58;;;19.48;;
13487;SDS011;6816;48.506;9.050;2022-08-19T10:11:40;23.25;;;20.85;;
13487;SDS011;6816;48.506;9.050;2022-08-19T10:14:41;22.52;;;20.33;;
13487;SDS011;6816;48.506;9.050;2022-08-19T10:17:42;21.42;;;19.25;;
13487;SDS011;6816;48.506;9.050;2022-08-19T10:20:43;22.75;;;20.33;;
13487;SDS011;6816;48.506;9.050;2022-08-19T10:23:46;22.88;;;20.60;;
13487;SDS011;6816;48.506;9.050;2022-08-19T10:26:48;20.85;;;18.70;;
13487;SDS011;6816;48.506;9.050;2022-08-19T10:29:49;23.08;;;20.65;;
13487;SDS011;6816;48.506;9.050;2022-08-19T10:32:49;21.42;;;19.17;;
13487;SDS011;6816;48.506;9.050;2022-08-19T10:35:58;22.08;;;19.92;;
13487;SDS011;6816;48.506;9.050;2022-08-19T10:39:00;21.45;;;19.33;;
13487;SDS011;6816;48.506;9.050;2022-08-19T10:42:09;21.65;;;19.13;;
13487;SDS011;6816;48.506;9.050;2022-08-19T10:45:13;20.65;;;18.65;;
13487;SDS011;6816;48.506;9.050;2022-08-19T10:48:14;19.65;;;17.75;;
13487;SDS011;6816;48.506;9.050;2022-08-19T10:51:15;23.02;;;20.70;;
13487;SDS011;6816;48.506;9.050;2022-08-19T10:54:34;20.98;;;18.98;;
13487;SDS011;6816;48.506;9.050;2022-08-19T10:57:53;21.48;;;19.38;;
13487;SDS011;6816;48.506;9.050;2022-08-19T11:00:55;23.65;;;21.35;;
13487;SDS011;6816;48.506;9.050;2022-08-19T11:03:59;20.92;;;18.83;;
13487;SDS011;6816;48.506;9.050;2022-08-19T11:07:00;20.20;;;18.30;;
13487;SDS011;6816;48.506;9.050;2022-08-19T11:10:03;21.35;;;19.40;;
13487;SDS011;6816;48.506;9.050;2022-08-19T11:13:05;21.92;;;19.63;;
13487;SDS011;6816;48.506;9.050;2022-08-19T11:16:07;21.77;;;19.70;;
13487;SDS011;6816;48.506;9.050;2022-08-19T11:19:14;21.80;;;19.70;;
13487;SDS011;6816;48.506;9.050;2022-08-19T11:22:17;23.55;;;21.20;;
13487;SDS011;6816;48.506;9.050;2022-08-19T11:25:17;21.88;;;19.88;;
13487;SDS011;6816;48.506;9.050;2022-08-19T11:28:18;21.35;;;19.38;;
13487;SDS011;6816;48.506;9.050;2022-08-19T11:31:19;21.00;;;19.10;;
13487;SDS011;6816;48.506;9.050;2022-08-19T11:34:22;20.67;;;18.63;;
13487;SDS011;6816;48.506;9.050;2022-08-19T11:37:25;20.67;;;18.73;;
13487;SDS011;6816;48.506;9.050;2022-08-19T11:40:26;22.60;;;20.25;;
13487;SDS011;6816;48.506;9.050;2022-08-19T11:43:27;23.10;;;20.65;;
13487;SDS011;6816;48.506;9.050;2022-08-19T11:46:28;21.33;;;19.25;;
13487;SDS011;6816;48.506;9.050;2022-08-19T11:49:29;23.88;;;21.50;;
13487;SDS011;6816;48.506;9.050;2022-08-19T11:52:30;21.30;;;19.30;;
13487;SDS011;6816;48.506;9.050;2022-08-19T11:55:30;20.50;;;18.52;;
13487;SDS011;6816;48.506;9.050;2022-08-19T11:58:31;20.25;;;18.35;;
13487;SDS011;6816;48.506;9.050;2022-08-19T12:01:32;20.38;;;18.48;;
13487;SDS011;6816;48.506;9.050;2022-08-19T12:04:34;19.08;;;17.40;;
13487;SDS011;6816;48.506;9.050;2022-08-19T12:07:34;20.52;;;18.73;;
13487;SDS011;6816;48.506;9.050;2022-08-19T12:10:35;17.85;;;16.25;;
13487;SDS011;6816;48.506;9.050;2022-08-19T12:13:36;20.75;;;18.77;;
13487;SDS011;6816;48.506;9.050;2022-08-19T12:16:38;18.98;;;17.20;;
13487;SDS011;6816;48.506;9.050;2022-08-19T12:19:40;20.17;;;18.33;;
13487;SDS011;6816;48.506;9.050;2022-08-19T12:22:41;19.33;;;17.48;;
13487;SDS011;6816;48.506;9.050;2022-08-19T12:25:46;19.98;;;18.25;;
13487;SDS011;6816;48.506;9.050;2022-08-19T12:28:51;18.73;;;17.02;;
13487;SDS011;6816;48.506;9.050;2022-08-19T12:31:52;18.95;;;17.30;;
13487;SDS011;6816;48.506;9.050;2022-08-19T12:34:53;18.42;;;16.73;;
13487;SDS011;6816;48.506;9.050;2022-08-19T12:37:54;19.75;;;17.95;;
13487;SDS011;6816;48.506;9.050;2022-08-19T12:40:55;18.80;;;17.05;;
13487;SDS011;6816;48.506;9.050;2022-08-19T12:43:56;18.42;;;16.77;;
13487;SDS011;6816;48.506;9.050;2022-08-19T12:46:56;18.80;;;17.25;;
13487;SDS011;6816;48.506;9.050;2022-08-19T12:49:58;18.25;;;16.55;;
13487;SDS011;6816;48.506;9.050;2022-08-19T12:52:58;19.65;;;17.85;;
13487;SDS011;6816;48.506;9.050;2022-08-19T12:55:59;18.63;;;16.90;;
13487;SDS011;6816;48.506;9.050;2022-08-19T12:59:01;19.05;;;17.15;;
13487;SDS011;6816;48.506;9.050;2022-08-19T13:02:03;19.15;;;17.45;;
13487;SDS011;6816;48.506;9.050;2022-08-19T13:05:06;18.05;;;16.45;;
13487;SDS011;6816;48.506;9.050;2022-08-19T13:08:09;18.33;;;16.67;;
13487;SDS011;6816;48.506;9.050;2022-08-19T13:11:12;19.88;;;18.08;;
13487;SDS011;6816;48.506;9.050;2022-08-19T13:14:17;19.38;;;17.58;;
13487;SDS011;6816;48.506;9.050;2022-08-19T13:17:19;17.77;;;16.27;;
13487;SDS011;6816;48.506;9.050;2022-08-19T13:20:20;18.98;;;17.10;;
13487;SDS011;6816;48.506;9.050;2022-08-19T13:23:22;18.40;;;16.80;;
13487;SDS011;6816;48.506;9.050;2022-08-19T13:26:23;18.75;;;17.05;;
13487;SDS011;6816;48.506;9.050;2022-08-19T13:29:23;18.63;;;16.92;;
13487;SDS011;6816;48.506;9.050;2022-08-19T13:32:42;18.25;;;16.55;;
13487;SDS011;6816;48.506;9.050;2022-08-19T13:36:02;17.83;;;16.27;;
13487;SDS011;6816;48.506;9.050;2022-08-19T13:39:06;17.98;;;16.40;;
13487;SDS011;6816;48.506;9.050;2022-08-19T13:42:08;17.17;;;15.68;;
13487;SDS011;6816;48.506;9.050;2022-08-19T13:45:10;17.33;;;15.77;;
13487;SDS011;6816;48.506;9.050;2022-08-19T13:48:11;16.70;;;15.27;;
13487;SDS011;6816;48.506;9.050;2022-08-19T13:51:12;19.05;;;17.35;;
13487;SDS011;6816;48.506;9.050;2022-08-19T13:54:12;17.48;;;15.88;;
13487;SDS011;6816;48.506;9.050;2022-08-19T13:57:13;17.35;;;15.85;;
13487;SDS011;6816;48.506;9.050;2022-08-19T14:00:15;17.45;;;15.85;;
13487;SDS011;6816;48.506;9.050;2022-08-19T14:03:18;17.20;;;15.80;;
13487;SDS011;6816;48.506;9.050;2022-08-19T14:06:19;18.00;;;16.48;;
13487;SDS011;6816;48.506;9.050;2022-08-19T14:09:21;18.25;;;16.67;;
13487;SDS011;6816;48.506;9.050;2022-08-19T14:12:21;19.45;;;17.83;;
13487;SDS011;6816;48.506;9.050;2022-08-19T14:15:22;19.48;;;17.60;;
13487;SDS011;6816;48.506;9.050;2022-08-19T14:18:23;18.40;;;16.70;;
13487;SDS011;6816;48.506;9.050;2022-08-19T14:21:25;18.15;;;16.35;;
13487;SDS011;6816;48.506;9.050;2022-08-19T14:24:25;18.48;;;16.88;;
13487;SDS011;6816;48.506;9.050;2022-08-19T14:27:27;19.05;;;17.15;;
13487;SDS011;6816;48.506;9.050;2022-08-19T14:30:29;17.17;;;15.80;;
13487;SDS011;6816;48.506;9.050;2022-08-19T14:33:32;19.10;;;17.40;;
13487;SDS011;6816;48.506;9.050;2022-08-19T14:36:33;18.85;;;17.15;;
13487;SDS011;6816;48.506;9.050;2022-08-19T14:39:34;18.98;;;17.23;;
13487;SDS011;6816;48.506;9.050;2022-08-19T14:42:35;19.52;;;17.90;;
13487;SDS011;6816;48.506;9.050;2022-08-19T14:45:36;18.55;;;16.75;;
13487;SDS011;6816;48.506;9.050;2022-08-19T14:48:38;18.75;;;17.15;;
13487;SDS011;6816;48.506;9.050;2022-08-19T14:51:39;19.08;;;17.52;;
13487;SDS011;6816;48.506;9.050;2022-08-19T14:54:39;17.67;;;16.17;;
13487;SDS011;6816;48.506;9.050;2022-08-19T14:57:40;16.80;;;15.40;;
13487;SDS011;6816;48.506;9.050;2022-08-19T15:00:42;18.13;;;16.52;;
13487;SDS011;6816;48.506;9.050;2022-08-19T15:03:43;18.13;;;16.42;;
13487;SDS011;6816;48.506;9.050;2022-08-19T15:06:43;19.88;;;18.17;;
13487;SDS011;6816;48.506;9.050;2022-08-19T15:09:44;18.80;;;17.20;;
13487;SDS011;6816;48.506;9.050;2022-08-19T15:12:44;19.20;;;17.48;;
13487;SDS011;6816;48.506;9.050;2022-08-19T15:15:45;19.73;;;18.02;;
13487;SDS011;6816;48.506;9.050;2022-08-19T15:18:49;20.27;;;18.38;;
13487;SDS011;6816;48.506;9.050;2022-08-19T15:21:51;19.42;;;17.83;;
13487;SDS011;6816;48.506;9.050;2022-08-19T15:24:54;19.90;;;18.20;;
13487;SDS011;6816;48.506;9.050;2022-08-19T15:27:56;20.05;;;18.38;;
13487;SDS011;6816;48.506;9.050;2022-08-19T15:30:56;19.25;;;17.67;;
13487;SDS011;6816;48.506;9.050;2022-08-19T15:33:57;20.52;;;18.77;;
13487;SDS011;6816;48.506;9.050;2022-08-19T15:36:57;20.40;;;18.60;;
13487;SDS011;6816;48.506;9.050;2022-08-19T15:39:59;19.27;;;17.65;;
13487;SDS011;6816;48.506;9.050;2022-08-19T15:42:59;21.13;;;19.25;;
13487;SDS011;6816;48.506;9.050;2022-08-19T15:46:00;19.50;;;17.88;;
13487;SDS011;6816;48.506;9.050;2022-08-19T15:49:01;20.67;;;18.88;;
13487;SDS011;6816;48.506;9.050;2022-08-19T15:52:02;19.42;;;17.83;;
13487;SDS011;6816;48.506;9.050;2022-08-19T15:55:04;21.10;;;19.08;;
13487;SDS011;6816;48.506;9.050;2022-08-19T15:58:07;20.92;;;18.92;;
13487;SDS011;6816;48.506;9.050;2022-08-19T16:01:28;18.85;;;17.30;;
13487;SDS011;6816;48.506;9.050;2022-08-19T16:04:47;20.50;;;18.73;;
13487;SDS011;6816;48.506;9.050;2022-08-19T16:08:06;21.73;;;19.83;;
13487;SDS011;6816;48.506;9.050;2022-08-19T16:11:11;20.10;;;18.30;;
13487;SDS011;6816;48.506;9.050;2022-08-19T16:14:16;21.23;;;19.20;;
13487;SDS011;6816;48.506;9.050;2022-08-19T16:17:18;19.88;;;18.20;;
13487;SDS011;6816;48.506;9.050;2022-08-19T16:20:19;19.63;;;18.02;;
13487;SDS011;6816;48.506;9.050;2022-08-19T16:23:21;17.92;;;16.38;;
13487;SDS011;6816;48.506;9.050;2022-08-19T16:26:21;19.90;;;18.30;;
13487;SDS011;6816;48.506;9.050;2022-08-19T16:29:23;19.65;;;17.85;;
13487;SDS011;6816;48.506;9.050;2022-08-19T16:32:24;19.05;;;17.40;;
13487;SDS011;6816;48.506;9.050;2022-08-19T16:35:25;19.48;;;17.90;;
13487;SDS011;6816;48.506;9.050;2022-08-19T16:38:25;19.23;;;17.63;;
13487;SDS011;6816;48.506;9.050;2022-08-19T16:41:27;19.27;;;17.63;;
13487;SDS011;6816;48.506;9.050;2022-08-19T16:44:28;19.65;;;17.95;;
13487;SDS011;6816;48.506;9.050;2022-08-19T16:47:28;19.63;;;18.05;;
13487;SDS011;6816;48.506;9.050;2022-08-19T16:50:29;19.42;;;17.77;;
13487;SDS011;6816;48.506;9.050;2022-08-19T16:53:30;21.30;;;19.50;;
13487;SDS011;6816;48.506;9.050;2022-08-19T16:56:31;20.70;;;18.85;;
13487;SDS011;6816;48.506;9.050;2022-08-19T16:59:32;18.55;;;17.05;;
13487;SDS011;6816;48.506;9.050;2022-08-19T17:02:33;21.02;;;19.17;;
13487;SDS011;6816;48.506;9.050;2022-08-19T17:05:34;19.90;;;18.27;;
13487;SDS011;6816;48.506;9.050;2022-08-19T17:08:49;18.60;;;16.90;;
13487;SDS011;6816;48.506;9.050;2022-08-19T17:11:50;17.75;;;16.30;;
13487;SDS011;6816;48.506;9.050;2022-08-19T17:14:51;18.42;;;16.88;;
13487;SDS011;6816;48.506;9.050;2022-08-19T17:17:52;19.63;;;17.92;;
13487;SDS011;6816;48.506;9.050;2022-08-19T17:20:58;18.00;;;16.42;;
13487;SDS011;6816;48.506;9.050;2022-08-19T17:24:01;17.35;;;16.02;;
13487;SDS011;6816;48.506;9.050;2022-08-19T17:27:03;19.05;;;17.20;;
13487;SDS011;6816;48.506;9.050;2022-08-19T17:30:04;20.83;;;18.73;;
13487;SDS011;6816;48.506;9.050;2022-08-19T17:33:07;18.33;;;16.73;;
13487;SDS011;6816;48.506;9.050;2022-08-19T17:36:08;16.50;;;15.20;;
13487;SDS011;6816;48.506;9.050;2022-08-19T17:39:09;16.63;;;15.23;;
13487;SDS011;6816;48.506;9.050;2022-08-19T17:42:09;15.48;;;14.15;;
13487;SDS011;6816;48.506;9.050;2022-08-19T17:45:11;14.30;;;13.10;;
13487;SDS011;6816;48.506;9.050;2022-08-19T17:48:12;13.95;;;12.85;;
13487;SDS011;6816;48.506;9.050;2022-08-19T17:51:21;14.25;;;13.15;;
13487;SDS011;6816;48.506;9.050;2022-08-19T17:54:34;14.10;;;12.98;;
13487;SDS011;6816;48.506;9.050;2022-08-19T17:57:36;13.38;;;12.40;;
13487;SDS011;6816;48.506;9.050;2022-08-19T18:00:38;13.70;;;12.55;;
13487;SDS011;6816;48.506;9.050;2022-08-19T18:03:39;13.60;;;12.60;;
13487;SDS011;6816;48.506;9.050;2022-08-19T18:06:41;13.52;;;12.43;;
13487;SDS011;6816;48.506;9.050;2022-08-19T18:09:41;13.35;;;12.35;;
13487;SDS011;6816;48.506;9.050;2022-08-19T18:12:42;13.60;;;12.60;;
13487;SDS011;6816;48.506;9.050;2022-08-19T18:15:43;13.20;;;12.15;;